Time,TemperatureF,DewpointF,PressureIn,WindDirection,WindDirectionDegrees,WindSpeedMPH,WindSpeedGustMPH,Humidity,HourlyPrecipIn,Conditions,Clouds,dailyrainin,SoftwareType,DateUTC
2013-04-29 00:12:00,60.7,56.0,30.17,SSW,197,6.0,11.0,84,0.00,,,0.00,weatherlink.com 1.10,2013-04-29 04:12:00,
2013-04-29 00:27:00,60.7,56.0,30.18,SE,143,5.0,11.0,84,0.00,,,0.00,weatherlink.com 1.10,2013-04-29 04:27:00,
2013-04-29 00:42:00,61.5,56.0,30.17,SSW,203,8.0,13.0,83,0.00,,,0.00,weatherlink.com 1.10,2013-04-29 04:42:00,
2013-04-29 00:57:00,61.0,56.0,30.17,South,188,5.0,10.0,84,0.00,,,0.00,weatherlink.com 1.10,2013-04-29 04:57:00,
2013-04-29 01:12:00,61.2,56.0,30.16,South,169,8.0,11.0,83,0.00,,,0.00,weatherlink.com 1.10,2013-04-29 05:12:00,
2013-04-29 01:27:00,61.4,56.0,30.16,South,190,9.0,13.0,82,0.00,,,0.00,weatherlink.com 1.10,2013-04-29 05:27:00,
2013-04-29 01:42:00,61.6,56.0,30.15,SSW,201,5.0,13.0,81,0.00,,,0.00,weatherlink.com 1.10,2013-04-29 05:42:00,
2013-04-29 01:57:00,61.6,56.0,30.14,SSW,195,8.0,16.0,81,0.00,,,0.00,weatherlink.com 1.10,2013-04-29 05:57:00,
2013-04-29 02:12:00,61.6,56.0,30.14,South,184,10.0,15.0,81,0.00,,,0.00,weatherlink.com 1.10,2013-04-29 06:12:00,
2013-04-29 02:27:00,61.8,56.0,30.14,SSW,192,12.0,15.0,80,0.00,,,0.00,weatherlink.com 1.10,2013-04-29 06:27:00,
2013-04-29 02:42:00,61.6,55.0,30.14,South,169,8.0,14.0,80,0.00,,,0.00,weatherlink.com 1.10,2013-04-29 06:42:00,
2013-04-29 02:57:00,61.1,56.0,30.13,SW,222,6.0,11.0,82,0.00,,,0.00,weatherlink.com 1.10,2013-04-29 06:57:00,
2013-04-29 03:12:00,61.2,55.0,30.13,SSE,149,12.0,13.0,81,0.00,,,0.00,weatherlink.com 1.10,2013-04-29 07:12:00,
2013-04-29 03:27:00,61.4,55.0,30.12,SW,217,11.0,14.0,80,0.00,,,0.00,weatherlink.com 1.10,2013-04-29 07:27:00,
2013-04-29 03:42:00,61.9,55.0,30.12,SSW,208,10.0,14.0,79,0.00,,,0.00,weatherlink.com 1.10,2013-04-29 07:42:00,
2013-04-29 03:57:00,61.4,56.0,30.12,SW,217,8.0,11.0,81,0.00,,,0.00,weatherlink.com 1.10,2013-04-29 07:57:00,
2013-04-29 04:12:00,61.4,56.0,30.12,South,186,7.0,11.0,82,0.00,,,0.00,weatherlink.com 1.10,2013-04-29 08:12:00,
2013-04-29 04:28:00,61.3,56.0,30.11,SSW,208,8.0,12.0,83,0.00,,,0.00,weatherlink.com 1.10,2013-04-29 08:28:00,
2013-04-29 04:43:00,61.5,56.0,30.11,SSE,156,7.0,12.0,82,0.00,,,0.00,weatherlink.com 1.10,2013-04-29 08:43:00,
2013-04-29 04:58:00,61.5,56.0,30.11,South,173,6.0,11.0,82,0.00,,,0.00,weatherlink.com 1.10,2013-04-29 08:58:00,
2013-04-29 05:13:00,61.0,56.0,30.11,SSW,195,9.0,11.0,82,0.00,,,0.00,weatherlink.com 1.10,2013-04-29 09:13:00,
2013-04-29 05:28:00,-999.0,-99.9,30.11,North,-999,-999.0,-999.0,-999,0.00,,,0.00,weatherlink.com 1.10,2013-04-29 09:28:00,
2013-04-29 05:43:00,-999.0,-99.9,30.11,North,-999,-999.0,-999.0,-999,0.00,,,0.00,weatherlink.com 1.10,2013-04-29 09:43:00,
2013-04-29 05:58:00,-999.0,-99.9,30.11,North,-999,-999.0,-999.0,-999,0.00,,,0.00,weatherlink.com 1.10,2013-04-29 09:58:00,
2013-04-29 06:13:00,-999.0,-99.9,30.11,North,-999,-999.0,-999.0,-999,0.00,,,0.00,weatherlink.com 1.10,2013-04-29 10:13:00,
2013-04-29 06:28:00,-999.0,-99.9,30.11,North,-999,-999.0,-999.0,-999,0.00,,,0.00,weatherlink.com 1.10,2013-04-29 10:28:00,
2013-04-29 06:43:00,-999.0,-99.9,30.11,North,-999,-999.0,-999.0,-999,0.00,,,0.00,weatherlink.com 1.10,2013-04-29 10:43:00,
2013-04-29 06:58:00,-999.0,-99.9,30.11,North,-999,-999.0,-999.0,-999,0.00,,,0.00,weatherlink.com 1.10,2013-04-29 10:58:00,
2013-04-29 07:13:00,-999.0,-99.9,30.12,North,-999,-999.0,-999.0,-999,0.00,,,0.00,weatherlink.com 1.10,2013-04-29 11:13:00,
2013-04-29 07:28:00,-999.0,-99.9,30.12,North,-999,-999.0,-999.0,-999,0.00,,,0.00,weatherlink.com 1.10,2013-04-29 11:28:00,
2013-04-29 07:43:00,-999.0,-99.9,30.12,North,-999,-999.0,-999.0,-999,0.00,,,0.00,weatherlink.com 1.10,2013-04-29 11:43:00,
2013-04-29 07:58:00,61.1,58.0,30.12,SSE,148,6.0,10.0,89,0.00,,,0.00,weatherlink.com 1.10,2013-04-29 11:58:00,
2013-04-29 08:13:00,60.6,58.0,30.12,SW,222,3.0,8.0,90,0.00,,,0.00,weatherlink.com 1.10,2013-04-29 12:13:00,
2013-04-29 08:28:00,60.5,58.0,30.11,SW,217,2.0,4.0,92,0.00,,,0.00,weatherlink.com 1.10,2013-04-29 12:28:00,
2013-04-29 08:43:00,60.7,58.0,30.12,SSW,198,10.0,17.0,90,0.00,,,0.00,weatherlink.com 1.10,2013-04-29 12:43:00,
2013-04-29 08:58:00,61.2,59.0,30.11,South,188,8.0,13.0,92,0.00,,,0.00,weatherlink.com 1.10,2013-04-29 12:58:00,
2013-04-29 09:13:00,61.8,59.0,30.10,SSW,210,13.0,15.0,90,0.00,,,0.00,weatherlink.com 1.10,2013-04-29 13:13:00,
2013-04-29 09:28:00,61.5,59.0,30.11,SSW,200,11.0,14.0,90,0.00,,,0.00,weatherlink.com 1.10,2013-04-29 13:28:00,
2013-04-29 09:43:00,61.1,59.0,30.11,SSW,194,7.0,12.0,91,0.00,,,0.00,weatherlink.com 1.10,2013-04-29 13:43:00,
2013-04-29 09:58:00,60.9,59.0,30.11,SW,214,10.0,10.0,92,0.00,,,0.00,weatherlink.com 1.10,2013-04-29 13:58:00,
2013-04-29 10:13:00,60.7,58.0,30.11,SW,214,5.0,11.0,91,0.00,,,0.00,weatherlink.com 1.10,2013-04-29 14:13:00,
2013-04-29 10:28:00,61.1,58.0,30.11,SW,235,4.0,11.0,90,0.00,,,0.00,weatherlink.com 1.10,2013-04-29 14:28:00,
2013-04-29 10:43:00,60.9,58.0,30.12,SW,232,5.0,9.0,91,0.00,,,0.00,weatherlink.com 1.10,2013-04-29 14:43:00,
2013-04-29 10:58:00,61.3,59.0,30.12,WSW,246,4.0,9.0,91,0.00,,,0.00,weatherlink.com 1.10,2013-04-29 14:58:00,
2013-04-29 11:13:00,61.4,59.0,30.12,SW,217,3.0,9.0,90,0.00,,,0.00,weatherlink.com 1.10,2013-04-29 15:13:00,
2013-04-29 11:28:00,61.9,60.0,30.13,WNW,285,7.0,11.0,93,0.00,,,0.00,weatherlink.com 1.10,2013-04-29 15:28:00,
2013-04-29 11:44:00,62.7,61.0,30.13,WNW,291,11.0,11.0,94,0.00,,,0.00,weatherlink.com 1.10,2013-04-29 15:44:00,
2013-04-29 11:59:00,62.4,61.0,30.13,WNW,288,9.0,14.0,94,0.00,,,0.00,weatherlink.com 1.10,2013-04-29 15:59:00,
2013-04-29 12:14:00,60.9,59.0,30.12,WSW,255,6.0,11.0,94,0.00,,,0.00,weatherlink.com 1.10,2013-04-29 16:14:00,
2013-04-29 12:29:00,61.5,60.0,30.12,WSW,256,1.0,8.0,95,0.00,,,0.00,weatherlink.com 1.10,2013-04-29 16:29:00,
2013-04-29 12:44:00,61.1,59.0,30.12,WSW,256,3.0,6.0,94,0.00,,,0.00,weatherlink.com 1.10,2013-04-29 16:44:00,
2013-04-29 12:59:00,60.6,59.0,30.11,WSW,238,2.0,6.0,94,0.00,,,0.00,weatherlink.com 1.10,2013-04-29 16:59:00,
2013-04-29 13:14:00,60.4,59.0,30.11,South,191,4.0,6.0,95,0.00,,,0.00,weatherlink.com 1.10,2013-04-29 17:14:00,
2013-04-29 13:29:00,59.9,58.0,30.10,SSE,153,5.0,7.0,94,0.00,,,0.00,weatherlink.com 1.10,2013-04-29 17:29:00,
2013-04-29 13:44:00,59.6,58.0,30.10,SW,215,5.0,6.0,95,0.00,,,0.00,weatherlink.com 1.10,2013-04-29 17:44:00,
2013-04-29 13:59:00,59.7,58.0,30.09,SSW,205,7.0,10.0,95,0.00,,,0.00,weatherlink.com 1.10,2013-04-29 17:59:00,
2013-04-29 14:14:00,59.6,58.0,30.08,SW,214,9.0,10.0,95,0.00,,,0.00,weatherlink.com 1.10,2013-04-29 18:14:00,
2013-04-29 14:29:00,60.0,59.0,30.07,SSE,152,10.0,12.0,96,0.00,,,0.00,weatherlink.com 1.10,2013-04-29 18:29:00,
2013-04-29 14:44:00,60.0,59.0,30.07,SSE,156,8.0,11.0,96,0.00,,,0.00,weatherlink.com 1.10,2013-04-29 18:44:00,
2013-04-29 14:59:00,60.1,59.0,30.06,SSW,203,9.0,12.0,96,0.00,,,0.00,weatherlink.com 1.10,2013-04-29 18:59:00,
2013-04-29 15:14:00,60.3,59.0,30.05,SSE,160,5.0,9.0,96,0.00,,,0.00,weatherlink.com 1.10,2013-04-29 19:14:00,
2013-04-29 15:29:00,59.9,59.0,30.04,SSE,153,6.0,9.0,95,0.00,,,0.00,weatherlink.com 1.10,2013-04-29 19:29:00,
2013-04-29 15:44:00,59.6,58.0,30.04,SE,134,6.0,9.0,95,0.00,,,0.00,weatherlink.com 1.10,2013-04-29 19:44:00,
2013-04-29 15:59:00,60.0,59.0,30.04,SSE,156,4.0,10.0,95,0.00,,,0.00,weatherlink.com 1.10,2013-04-29 19:59:00,
2013-04-29 16:14:00,60.4,59.0,30.03,SSE,165,6.0,9.0,95,0.00,,,0.00,weatherlink.com 1.10,2013-04-29 20:14:00,
2013-04-29 16:29:00,60.7,59.0,30.03,SSE,149,6.0,11.0,94,0.00,,,0.00,weatherlink.com 1.10,2013-04-29 20:29:00,
2013-04-29 16:44:00,61.4,60.0,30.03,SE,139,4.0,9.0,94,0.00,,,0.00,weatherlink.com 1.10,2013-04-29 20:44:00,
2013-04-29 16:59:00,61.7,60.0,30.03,SE,140,3.0,8.0,93,0.00,,,0.00,weatherlink.com 1.10,2013-04-29 20:59:00,
2013-04-29 17:14:00,61.0,59.0,30.02,SSE,156,4.0,7.0,93,0.00,,,0.00,weatherlink.com 1.10,2013-04-29 21:14:00,
2013-04-29 17:30:00,61.4,60.0,30.02,SSE,156,4.0,9.0,94,0.00,,,0.00,weatherlink.com 1.10,2013-04-29 21:30:00,
2013-04-29 17:44:00,62.1,60.0,30.02,SE,125,4.0,9.0,94,0.00,,,0.00,weatherlink.com 1.10,2013-04-29 21:44:00,
2013-04-29 17:59:00,62.5,61.0,30.02,SE,141,6.0,8.0,94,0.00,,,0.00,weatherlink.com 1.10,2013-04-29 21:59:00,
2013-04-29 18:14:00,63.5,62.0,30.01,SSE,154,4.0,10.0,94,0.00,,,0.00,weatherlink.com 1.10,2013-04-29 22:14:00,
2013-04-29 18:29:00,62.9,61.0,30.02,SSW,194,7.0,7.0,93,0.00,,,0.00,weatherlink.com 1.10,2013-04-29 22:29:00,
2013-04-29 18:44:00,63.1,61.0,30.02,WNW,283,10.0,12.0,94,0.00,,,0.00,weatherlink.com 1.10,2013-04-29 22:44:00,
2013-04-29 18:59:00,64.6,63.0,30.02,WNW,285,4.0,16.0,93,0.00,,,0.00,weatherlink.com 1.10,2013-04-29 22:59:00,
2013-04-29 19:14:00,64.9,63.0,30.02,WNW,299,9.0,14.0,92,0.00,,,0.00,weatherlink.com 1.10,2013-04-29 23:14:00,
2013-04-29 19:29:00,64.7,63.0,30.01,WNW,283,8.0,14.0,93,0.00,,,0.00,weatherlink.com 1.10,2013-04-29 23:29:00,
2013-04-29 19:44:00,64.6,63.0,30.02,WNW,295,6.0,16.0,93,0.00,,,0.00,weatherlink.com 1.10,2013-04-29 23:44:00,
2013-04-29 19:59:00,64.5,63.0,30.02,West,278,3.0,11.0,94,0.00,,,0.00,weatherlink.com 1.10,2013-04-29 23:59:00,
2013-04-29 20:14:00,64.3,63.0,30.03,WNW,285,5.0,9.0,94,0.00,,,0.00,weatherlink.com 1.10,2013-04-30 00:14:00,
2013-04-29 20:29:00,63.2,62.0,30.04,WNW,283,6.0,11.0,94,0.00,,,0.00,weatherlink.com 1.10,2013-04-30 00:29:00,
2013-04-29 20:44:00,64.4,63.0,30.03,West,280,5.0,10.0,94,0.00,,,0.00,weatherlink.com 1.10,2013-04-30 00:44:00,
2013-04-29 20:59:00,62.8,61.0,30.04,WNW,297,8.0,10.0,93,0.00,,,0.00,weatherlink.com 1.10,2013-04-30 00:59:00,
2013-04-29 21:14:00,62.0,60.0,30.04,West,274,3.0,11.0,94,0.00,,,0.00,weatherlink.com 1.10,2013-04-30 01:14:00,
2013-04-29 21:29:00,61.9,61.0,30.04,WNW,298,9.0,11.0,95,0.00,,,0.00,weatherlink.com 1.10,2013-04-30 01:29:00,
2013-04-29 21:44:00,61.4,60.0,30.04,West,277,6.0,8.0,95,0.00,,,0.00,weatherlink.com 1.10,2013-04-30 01:44:00,
2013-04-29 21:59:00,61.9,61.0,30.04,WNW,283,7.0,10.0,95,0.00,,,0.00,weatherlink.com 1.10,2013-04-30 01:59:00,
2013-04-29 22:14:00,61.0,59.0,30.04,West,262,4.0,7.0,94,0.00,,,0.00,weatherlink.com 1.10,2013-04-30 02:14:00,
2013-04-29 22:29:00,60.4,59.0,30.04,West,276,1.0,4.0,95,0.00,,,0.00,weatherlink.com 1.10,2013-04-30 02:29:00,
2013-04-29 22:44:00,60.4,59.0,30.04,West,266,4.0,5.0,95,0.00,,,0.00,weatherlink.com 1.10,2013-04-30 02:44:00,
2013-04-29 22:59:00,60.6,59.0,30.03,WSW,255,6.0,7.0,95,0.00,,,0.00,weatherlink.com 1.10,2013-04-30 02:59:00,
2013-04-29 23:14:00,60.8,60.0,30.03,West,281,4.0,9.0,96,0.00,,,0.00,weatherlink.com 1.10,2013-04-30 03:14:00,
2013-04-29 23:29:00,61.1,60.0,30.03,WSW,254,4.0,9.0,96,0.00,,,0.00,weatherlink.com 1.10,2013-04-30 03:29:00,
2013-04-29 23:44:00,60.8,59.0,30.03,West,262,4.0,7.0,95,0.00,,,0.00,weatherlink.com 1.10,2013-04-30 03:44:00,
2013-04-29 23:59:00,61.0,60.0,30.02,WNW,287,4.0,9.0,95,0.00,,,0.00,weatherlink.com 1.10,2013-04-30 03:59:00,